Airfield :
LOGIN :

Register | Disclaimer

   EN    FR    IT 

 










Legend :    VFR   Marginal VFR   IFR   Intensive IFR   Very Intensive IFR
Visi :
Ceiling :
>= 8 km
>= 3000ft
5 to 8 km
1000 to 3000 ft
1500m to 5 km
500 to 1000 ft
800 to 1500m
200 to 500 ft
< 800m
< 200 ft
Symbols :   Thunderstorms  Fog  Heavy snow  Heavy precipitations  Wind > 20 kt
SIGMETs :     Misc.  Thunderstorms  Icing  Turbulence  Mountain Waves  Volcanic Ashes







- Airport Elevation : 1213 ft
- IATA code : SCQ


LEST - Santiago de Compostela

CURRENT METAR :
  • 161800Z 36008KT 290V030 9999 FEW030 17/12 Q1019 NOSIG

EXPIRED METARs :
  • 161730Z 35009KT 320V030 9999 FEW033 18/12 Q1019 NOSIG
  • 161700Z 01011KT 340V050 9999 FEW038 18/13 Q1019 NOSIG
  • 161630Z 35013KT 330V050 9999 FEW038 19/13 Q1019 NOSIG
  • 161600Z 35011KT 300V050 9999 FEW038 20/13 Q1019 NOSIG
  • 161530Z 01011KT 330V060 9999 FEW038 20/14 Q1019 NOSIG

TAF TAF LEST
Valid from the 16 at 18:00 until the 17 at 18:00 UTC


161700Z 1618/1718 01010KT 9999 FEW030 TX21/1714Z TN09/1705Z
BECMG 1619/1622 VRB03KT
TEMPO 1623/1707 3000 BR BCFG
TEMPO 1700/1707 0800 BCFG
PROB40
TEMPO 1702/1706 0150 FG VV001
TEMPO 1714/1717 25010KT
No reported NOTAMs for that airfield.
1 SIGMET reported for the Madrid FIR (LECM) :
 
Severe turbulence
LECM SIGMET 1 VALID 161800/162200 LEVA
LECM MADRID UIR SEV TURB FCST WI N3712 W00721 - N3709 W00701 - N3734 W00633 - N3621 W00257 - N3717 W00146 - N3938 W00703 - N3936 W00723 - N3712 W00721 FL290/350 MOV NE NC=



MET'MAP, your aeronautical weather chart ! - Copyright ORBIFLY December 2007 - Disclaimer

ORBIFLY MET'MAP TEAM :

Programming & Development : Alexandra Zaïnal
Concept & Development : Baudouin d'Aumeries
Co-Development & Prog : Marc-Olivier Méhu
Technical & hardware support : Manuel Goepfert

Contact : metmap@orbifly.com




SOURCES & CREDITS :

   NOAA